HGO1 EBLG-ESSA
Flight info
| Callsign | HGO1 |
|---|---|
| Flight time | N/A |
| Altitude | 23000 |
| Route | LNO M170 KENUM/N0479F390 N853 QATJA/N0482F410 N853 ONUNE DCT ROBEG DCT RAMAR DCT MAKEL DCT VIBAR/N0432F270 Z227 NILUG |
| Aircraft | B77L/H-SDE1E2E3FGHIJ2J3J4J5M1RWXY/LB1D1 |
Departure
| Time | 2026-04-26 13:30 |
|---|---|
| Airport | Liège Airport (EBLG) |
Arrival
| Time | N/A |
|---|---|
| Airport | Stockholm-Arlanda Airport (ESSA) |
| Time | Latitude | Longitude | Altitude | Speed | Heading |
|---|---|---|---|---|---|
| 2026-04-26 12:53 | 50.64090 | 5.43814 | 649 ft | 0 kts | 315° |
| 2026-04-26 13:19 | 50.64089 | 5.43814 | 643 ft | 0 kts | 315° |
| 2026-04-26 13:21 | 50.64086 | 5.43819 | 643 ft | 2 kts | 315° |
| 2026-04-26 13:21 | 50.64072 | 5.43841 | 647 ft | 3 kts | 315° |
| 2026-04-26 13:21 | 50.64058 | 5.43863 | 644 ft | 2 kts | 315° |
| 2026-04-26 13:22 | 50.64045 | 5.43885 | 646 ft | 3 kts | 298° |
| 2026-04-26 13:22 | 50.64039 | 5.43914 | 649 ft | 3 kts | 271° |
| 2026-04-26 13:22 | 50.64041 | 5.43944 | 646 ft | 3 kts | 246° |
| 2026-04-26 13:22 | 50.64051 | 5.43971 | 650 ft | 3 kts | 229° |
| 2026-04-26 13:23 | 50.64058 | 5.43983 | 648 ft | 0 kts | 225° |
| 2026-04-26 13:27 | 50.64054 | 5.43978 | 643 ft | 2 kts | 222° |
| 2026-04-26 13:27 | 50.64016 | 5.43921 | 647 ft | 15 kts | 224° |
| 2026-04-26 13:27 | 50.63919 | 5.43768 | 647 ft | 22 kts | 225° |
| 2026-04-26 13:28 | 50.63808 | 5.43610 | 649 ft | 21 kts | 208° |
| 2026-04-26 13:28 | 50.63689 | 5.43470 | 651 ft | 21 kts | 225° |
| 2026-04-26 13:28 | 50.63584 | 5.43303 | 647 ft | 21 kts | 225° |
| 2026-04-26 13:28 | 50.63479 | 5.43136 | 648 ft | 21 kts | 225° |
| 2026-04-26 13:29 | 50.63368 | 5.42981 | 648 ft | 21 kts | 210° |
| 2026-04-26 13:29 | 50.63280 | 5.42913 | 645 ft | 21 kts | 205° |
| 2026-04-26 13:29 | 50.63089 | 5.42947 | 649 ft | 21 kts | 172° |
| 2026-04-26 13:29 | 50.62954 | 5.43036 | 665 ft | 21 kts | 130° |
| 2026-04-26 13:30 | 50.63004 | 5.43243 | 661 ft | 33 kts | 45° |
| 2026-04-26 13:30 | 50.63456 | 5.43962 | 647 ft | 150 kts | 45° |
| 2026-04-26 13:30 | 50.64260 | 5.45229 | 938 ft | 175 kts | 44° |
| 2026-04-26 13:30 | 50.65153 | 5.46640 | 1660 ft | 185 kts | 44° |
| 2026-04-26 13:31 | 50.66073 | 5.48094 | 2534 ft | 187 kts | 44° |
| 2026-04-26 13:31 | 50.66998 | 5.49568 | 3697 ft | 197 kts | 44° |
| 2026-04-26 13:31 | 50.68030 | 5.51222 | 4306 ft | 226 kts | 44° |
| 2026-04-26 13:31 | 50.69122 | 5.52965 | 5329 ft | 232 kts | 44° |
| 2026-04-26 13:32 | 50.70268 | 5.54777 | 6513 ft | 234 kts | 45° |
| 2026-04-26 13:32 | 50.71100 | 5.56983 | 7471 ft | 243 kts | 78° |
| 2026-04-26 13:32 | 50.71105 | 5.59655 | 8432 ft | 248 kts | 94° |
| 2026-04-26 13:32 | 50.70977 | 5.62404 | 9426 ft | 255 kts | 91° |
| 2026-04-26 13:33 | 50.70876 | 5.65198 | 10526 ft | 259 kts | 91° |
| 2026-04-26 13:33 | 50.70783 | 5.68126 | 11290 ft | 276 kts | 91° |
| 2026-04-26 13:33 | 50.70691 | 5.71311 | 11809 ft | 301 kts | 91° |
| 2026-04-26 13:33 | 50.70598 | 5.74656 | 12801 ft | 309 kts | 91° |
| 2026-04-26 13:34 | 50.70506 | 5.78064 | 13958 ft | 313 kts | 91° |
| 2026-04-26 13:34 | 50.70417 | 5.81507 | 14796 ft | 316 kts | 91° |
| 2026-04-26 13:34 | 50.70332 | 5.84981 | 15257 ft | 321 kts | 91° |
| 2026-04-26 13:34 | 50.70274 | 5.87328 | 15354 ft | 323 kts | 91° |
| 2026-04-26 13:35 | 50.70155 | 5.92108 | 15694 ft | 327 kts | 91° |
| 2026-04-26 13:35 | 50.70063 | 5.95705 | 16755 ft | 329 kts | 91° |
| 2026-04-26 13:35 | 50.69972 | 5.99335 | 17786 ft | 334 kts | 91° |
| 2026-04-26 13:35 | 50.69878 | 6.03038 | 18727 ft | 341 kts | 91° |
| 2026-04-26 13:36 | 50.69780 | 6.06802 | 19603 ft | 345 kts | 91° |
| 2026-04-26 13:36 | 50.69721 | 6.10603 | 20511 ft | 348 kts | 86° |
| 2026-04-26 13:36 | 50.70027 | 6.14393 | 21409 ft | 351 kts | 76° |
| 2026-04-26 13:36 | 50.70711 | 6.18100 | 22288 ft | 353 kts | 66° |
| 2026-04-26 13:37 | 50.71705 | 6.21600 | 23152 ft | 356 kts | 57° |
| 2026-04-26 13:37 | 50.73111 | 6.24819 | 23995 ft | 358 kts | 47° |
| 2026-04-26 13:37 | 50.74817 | 6.27695 | 24768 ft | 359 kts | 39° |
| 2026-04-26 13:37 | 50.76656 | 6.30374 | 25552 ft | 362 kts | 39° |
| 2026-04-26 13:38 | 50.78529 | 6.33063 | 26356 ft | 365 kts | 38° |
| 2026-04-26 13:38 | 50.80416 | 6.35774 | 27159 ft | 369 kts | 38° |
| 2026-04-26 13:38 | 50.82319 | 6.38526 | 27943 ft | 373 kts | 38° |
| 2026-04-26 13:38 | 50.84241 | 6.41317 | 28711 ft | 377 kts | 38° |
| 2026-04-26 13:39 | 50.86176 | 6.44143 | 29486 ft | 381 kts | 38° |
| 2026-04-26 13:39 | 50.88133 | 6.47010 | 30262 ft | 385 kts | 38° |
| 2026-04-26 13:39 | 50.90055 | 6.49831 | 30892 ft | 389 kts | 39° |
| 2026-04-26 13:39 | 50.92106 | 6.52846 | 31502 ft | 394 kts | 39° |
| 2026-04-26 13:40 | 50.94126 | 6.55822 | 32097 ft | 398 kts | 39° |
| 2026-04-26 13:40 | 50.96167 | 6.58831 | 32677 ft | 403 kts | 39° |
| 2026-04-26 13:40 | 50.98232 | 6.61877 | 33243 ft | 407 kts | 39° |
| 2026-04-26 13:40 | 51.00323 | 6.64965 | 33671 ft | 415 kts | 40° |
| 2026-04-26 13:41 | 51.02396 | 6.68200 | 34152 ft | 422 kts | 44° |
| 2026-04-26 13:41 | 51.04268 | 6.71836 | 34639 ft | 427 kts | 50° |
| 2026-04-26 13:41 | 51.06008 | 6.75600 | 35115 ft | 430 kts | 51° |
| 2026-04-26 13:41 | 51.07785 | 6.79448 | 35571 ft | 433 kts | 51° |
| 2026-04-26 13:42 | 51.09591 | 6.83303 | 35972 ft | 437 kts | 50° |
| 2026-04-26 13:42 | 51.11423 | 6.87184 | 36376 ft | 440 kts | 50° |
| 2026-04-26 13:42 | 51.13270 | 6.91094 | 36776 ft | 444 kts | 50° |
| 2026-04-26 13:42 | 51.15136 | 6.95047 | 37165 ft | 448 kts | 50° |
| 2026-04-26 13:43 | 51.17012 | 6.99031 | 37547 ft | 451 kts | 50° |
| 2026-04-26 13:43 | 51.18900 | 7.03047 | 37914 ft | 454 kts | 50° |
| 2026-04-26 13:43 | 51.20801 | 7.07102 | 38286 ft | 457 kts | 50° |
| 2026-04-26 13:43 | 51.22710 | 7.11179 | 38638 ft | 461 kts | 51° |
| 2026-04-26 13:44 | 51.24633 | 7.15294 | 38976 ft | 464 kts | 51° |
| 2026-04-26 13:44 | 51.26566 | 7.19436 | 39194 ft | 468 kts | 51° |
| 2026-04-26 13:44 | 51.28525 | 7.23639 | 39241 ft | 474 kts | 51° |
| 2026-04-26 13:45 | 51.32450 | 7.32090 | 39277 ft | 471 kts | 51° |
| 2026-04-26 13:45 | 51.36325 | 7.40453 | 39289 ft | 466 kts | 51° |
| 2026-04-26 13:46 | 51.40230 | 7.48704 | 39293 ft | 465 kts | 50° |
| 2026-04-26 13:46 | 51.44180 | 7.56847 | 39316 ft | 464 kts | 49° |
| 2026-04-26 13:47 | 51.48143 | 7.65046 | 39316 ft | 465 kts | 50° |
| 2026-04-26 13:47 | 51.52094 | 7.73283 | 39332 ft | 466 kts | 50° |
| 2026-04-26 13:48 | 51.56047 | 7.81568 | 39333 ft | 468 kts | 50° |
| 2026-04-26 13:48 | 51.60005 | 7.89892 | 39312 ft | 469 kts | 50° |
| 2026-04-26 13:49 | 51.63962 | 7.98242 | 39309 ft | 470 kts | 50° |
| 2026-04-26 13:49 | 51.67922 | 8.06621 | 39306 ft | 470 kts | 50° |
| 2026-04-26 13:50 | 51.71870 | 8.15004 | 39303 ft | 469 kts | 50° |
| 2026-04-26 13:50 | 51.75785 | 8.23344 | 39319 ft | 469 kts | 50° |